Aérodrome :
LOGIN :

S'inscrire | Disclaimer

   EN    FR    IT 

 










Légende :    VFR   VFR Marginal   IFR   IFR Intensif   IFR Très Intensif
Visi : 
Plafond : 
>= 8 km
>= 3000ft
5 à 8 km
1000 à 3000 ft
1500m à 5 km
500 à 1000 ft
800 à 1500m
200 à 500 ft
< 800m
< 200 ft
Symboles :   Orages  Brouillard  Fortes neiges  Fortes précipitations  Vent > 20 kt
SIGMETs :   Divers  Orages  Givrage  Turbulence  Onde Orograph.  Cendres Volcan.






- Altitude de l'aérodrome : 327 ft
- Code IATA : BHX


EGBB - Birmingham

DERNIER METAR :
  • 270520Z 20008KT 170V240 9999 FEW030 06/05 Q1000

METARs EXPIRÉS :
  • 270450Z 20008KT 9999 FEW030 06/05 Q1000
  • 270420Z 19004KT 160V230 9999 FEW045 05/04 Q1001
  • 270350Z 21008KT 180V240 9999 BKN042 06/04 Q1001 RERA
  • 270320Z 21009KT 180V250 7000 RA FEW015 SCT027 BKN033 06/05 Q1001
  • 270250Z 20008KT 170V240 9999 BKN011 BKN017 06/05 Q1001

TAF TAF EGBB
Valide du 27 à 06h jusqu'au 28 à 06h UTC


270500Z 2706/2806 20007KT 9999 SCT030
PROB30
TEMPO 2706/2709 6000 SHRA BKN006
TEMPO 2720/2806 6000 RA BKN006
ATIS : +44 121 780 0910



MET'MAP, la Météo Aéronautique d'un coup d'oeil ! - Copyright ORBIFLY Décembre 2007 - Disclaimer

ORBIFLY MET'MAP TEAM :

Programmation & Développement : Alexandra Zaïnal
Sur une idée originale de : Baudouin d'Aumeries
Assistance à la programmation : Marc-Olivier Méhu
Soutien technique & logistique : Manuel Goepfert

Contact : metmap@orbifly.com




SOURCES & CREDITS :

   NOAA